Stacy, Virginia
Current Conditions -  °F | °C
As of 7:55 AM on Tuesday 21 Oct 2014 (Local Time) from KJFZ Reporting Station
Overcast Overcast  
Wind Chill: 53°   Ceiling: 2200
Heat Index: 53°   Visibility: 10mi
Dew Point: 49°   Wind: 5mph
Humidity: 89%   Direction: 230°SW
Pressure: 29.96"   Gusts: NA
Location:  37.3014°N, 82.1027°W
Report Text: KJFZ 211155Z AUTO 23004KT 10SM SCT007 SCT017 OVC022 12/10 A2996 RMK AO2 70003 T01150097 10126 20112
Loading
Personal Weather Stations






























Interactive Weather Map
Tropical Storm Tracking
New forecast layout! Learn more

10-Day Weather Forecast

Advertisements
Track Severe Weather on mobile